Sylvania, Arkansas
Current Conditions -  °F | °C
As of 1:58 PM on Monday 24 Nov 2014 (Local Time) from KLRF Reporting Station
Clear Clear  
Wind Chill: 59°   Ceiling: Unl
Heat Index: 59°   Visibility: 10mi
Dew Point: 27°   Wind: 18mph
Humidity: 30%   Direction: 260°W
Pressure: 29.89"   Gusts: 29mph
Location:  34.9606°N, 91.8764°W
Report Text: KLRF 241958Z AUTO 26016G25KT 10SM CLR 15/M03 A2989 RMK AO2 PK WND 27029/42 SLP124 T01481029
Loading
Personal Weather Stations






























Interactive Weather Map New forecast layout! Learn more

10-Day Weather Forecast

Advertisements
Track Severe Weather on mobile